sensor_id;sensor_type;location;lat;lon;timestamp;temperature;humidity
13713;DHT22;6928;50.546;7.120;2023-05-07T00:01:14;13.28;91.77
13713;DHT22;6928;50.546;7.120;2023-05-07T00:03:41;13.32;91.52
13713;DHT22;6928;50.546;7.120;2023-05-07T00:06:08;13.32;91.67
13713;DHT22;6928;50.546;7.120;2023-05-07T00:08:35;13.25;91.87
13713;DHT22;6928;50.546;7.120;2023-05-07T00:11:03;13.25;91.92
13713;DHT22;6928;50.546;7.120;2023-05-07T00:13:30;13.25;91.72
13713;DHT22;6928;50.546;7.120;2023-05-07T00:16:00;13.28;91.66
13713;DHT22;6928;50.546;7.120;2023-05-07T00:18:29;13.28;91.57
13713;DHT22;6928;50.546;7.120;2023-05-07T00:20:56;13.28;91.52
13713;DHT22;6928;50.546;7.120;2023-05-07T00:23:23;13.30;91.62
13713;DHT22;6928;50.546;7.120;2023-05-07T00:25:49;13.25;91.66
13713;DHT22;6928;50.546;7.120;2023-05-07T00:28:16;13.25;91.81
13713;DHT22;6928;50.546;7.120;2023-05-07T00:30:43;13.28;91.58
13713;DHT22;6928;50.546;7.120;2023-05-07T00:33:10;13.17;92.24
13713;DHT22;6928;50.546;7.120;2023-05-07T00:35:38;13.30;91.86
13713;DHT22;6928;50.546;7.120;2023-05-07T00:38:04;13.25;91.89
13713;DHT22;6928;50.546;7.120;2023-05-07T00:40:31;13.30;91.77
13713;DHT22;6928;50.546;7.120;2023-05-07T00:42:58;13.17;92.04
13713;DHT22;6928;50.546;7.120;2023-05-07T00:45:26;13.27;92.10
13713;DHT22;6928;50.546;7.120;2023-05-07T00:47:54;13.24;92.38
13713;DHT22;6928;50.546;7.120;2023-05-07T00:50:21;13.24;91.95
13713;DHT22;6928;50.546;7.120;2023-05-07T00:52:49;13.24;91.76
13713;DHT22;6928;50.546;7.120;2023-05-07T00:55:17;13.31;91.62
13713;DHT22;6928;50.546;7.120;2023-05-07T00:57:44;13.25;91.69
13713;DHT22;6928;50.546;7.120;2023-05-07T01:00:12;13.14;92.25
13713;DHT22;6928;50.546;7.120;2023-05-07T01:02:40;13.21;91.90
13713;DHT22;6928;50.546;7.120;2023-05-07T01:05:09;13.21;91.77
13713;DHT22;6928;50.546;7.120;2023-05-07T01:07:38;13.17;91.97
13713;DHT22;6928;50.546;7.120;2023-05-07T01:10:09;13.20;91.78
13713;DHT22;6928;50.546;7.120;2023-05-07T01:12:38;13.23;91.70
13713;DHT22;6928;50.546;7.120;2023-05-07T01:15:08;13.24;91.70
13713;DHT22;6928;50.546;7.120;2023-05-07T01:17:36;13.15;92.39
13713;DHT22;6928;50.546;7.120;2023-05-07T01:20:05;13.21;92.05
13713;DHT22;6928;50.546;7.120;2023-05-07T01:22:35;13.23;92.15
13713;DHT22;6928;50.546;7.120;2023-05-07T01:25:03;13.23;91.87
13713;DHT22;6928;50.546;7.120;2023-05-07T01:27:30;13.21;92.25
13713;DHT22;6928;50.546;7.120;2023-05-07T01:29:58;13.25;92.06
13713;DHT22;6928;50.546;7.120;2023-05-07T01:32:31;13.21;92.00
13713;DHT22;6928;50.546;7.120;2023-05-07T01:35:00;13.20;92.07
13713;DHT22;6928;50.546;7.120;2023-05-07T01:37:28;13.18;92.18
13713;DHT22;6928;50.546;7.120;2023-05-07T01:39:57;13.18;92.13
13713;DHT22;6928;50.546;7.120;2023-05-07T01:42:24;13.17;92.20
13713;DHT22;6928;50.546;7.120;2023-05-07T01:44:51;13.18;92.19
13713;DHT22;6928;50.546;7.120;2023-05-07T01:47:18;13.20;92.18
13713;DHT22;6928;50.546;7.120;2023-05-07T01:49:45;13.17;92.28
13713;DHT22;6928;50.546;7.120;2023-05-07T01:52:13;13.20;92.29
13713;DHT22;6928;50.546;7.120;2023-05-07T01:54:39;13.20;92.26
13713;DHT22;6928;50.546;7.120;2023-05-07T01:57:07;13.21;92.23
13713;DHT22;6928;50.546;7.120;2023-05-07T01:59:34;13.28;92.14
13713;DHT22;6928;50.546;7.120;2023-05-07T02:02:01;13.25;92.10
13713;DHT22;6928;50.546;7.120;2023-05-07T02:04:28;13.20;92.46
13713;DHT22;6928;50.546;7.120;2023-05-07T02:06:54;13.14;92.48
13713;DHT22;6928;50.546;7.120;2023-05-07T02:09:21;13.11;93.04
13713;DHT22;6928;50.546;7.120;2023-05-07T02:11:48;13.14;92.69
13713;DHT22;6928;50.546;7.120;2023-05-07T02:14:16;12.97;93.21
13713;DHT22;6928;50.546;7.120;2023-05-07T02:16:43;13.07;93.26
13713;DHT22;6928;50.546;7.120;2023-05-07T02:19:10;13.11;93.25
13713;DHT22;6928;50.546;7.120;2023-05-07T02:21:36;13.13;93.05
13713;DHT22;6928;50.546;7.120;2023-05-07T02:24:04;13.11;92.97
13713;DHT22;6928;50.546;7.120;2023-05-07T02:26:31;13.13;92.71
13713;DHT22;6928;50.546;7.120;2023-05-07T02:28:57;13.13;92.59
13713;DHT22;6928;50.546;7.120;2023-05-07T02:31:25;13.13;92.49
13713;DHT22;6928;50.546;7.120;2023-05-07T02:33:52;13.13;92.50
13713;DHT22;6928;50.546;7.120;2023-05-07T02:36:19;13.10;92.51
13713;DHT22;6928;50.546;7.120;2023-05-07T02:38:46;13.07;92.53
13713;DHT22;6928;50.546;7.120;2023-05-07T02:41:12;13.14;92.40
13713;DHT22;6928;50.546;7.120;2023-05-07T02:43:39;13.10;92.34
13713;DHT22;6928;50.546;7.120;2023-05-07T02:46:08;13.00;92.71
13713;DHT22;6928;50.546;7.120;2023-05-07T02:48:36;13.07;92.69
13713;DHT22;6928;50.546;7.120;2023-05-07T02:51:04;13.15;92.37
13713;DHT22;6928;50.546;7.120;2023-05-07T02:53:31;13.10;92.43
13713;DHT22;6928;50.546;7.120;2023-05-07T02:56:00;13.08;92.31
13713;DHT22;6928;50.546;7.120;2023-05-07T02:58:27;13.06;92.26
13713;DHT22;6928;50.546;7.120;2023-05-07T03:00:54;13.02;92.29
13713;DHT22;6928;50.546;7.120;2023-05-07T03:03:21;12.97;92.34
13713;DHT22;6928;50.546;7.120;2023-05-07T03:05:49;12.99;92.46
13713;DHT22;6928;50.546;7.120;2023-05-07T03:08:16;13.00;92.32
13713;DHT22;6928;50.546;7.120;2023-05-07T03:10:43;12.97;92.40
13713;DHT22;6928;50.546;7.120;2023-05-07T03:13:09;12.96;92.32
13713;DHT22;6928;50.546;7.120;2023-05-07T03:15:36;12.93;92.56
13713;DHT22;6928;50.546;7.120;2023-05-07T03:18:03;12.92;92.67
13713;DHT22;6928;50.546;7.120;2023-05-07T03:20:30;12.96;92.40
13713;DHT22;6928;50.546;7.120;2023-05-07T03:22:58;12.96;92.30
13713;DHT22;6928;50.546;7.120;2023-05-07T03:25:25;12.96;92.42
13713;DHT22;6928;50.546;7.120;2023-05-07T03:27:51;12.96;92.66
13713;DHT22;6928;50.546;7.120;2023-05-07T03:30:18;12.96;92.51
13713;DHT22;6928;50.546;7.120;2023-05-07T03:32:45;12.99;92.51
13713;DHT22;6928;50.546;7.120;2023-05-07T03:35:12;12.94;92.52
13713;DHT22;6928;50.546;7.120;2023-05-07T03:37:39;12.94;92.43
13713;DHT22;6928;50.546;7.120;2023-05-07T03:40:09;12.90;92.58
13713;DHT22;6928;50.546;7.120;2023-05-07T03:42:36;12.90;92.51
13713;DHT22;6928;50.546;7.120;2023-05-07T03:45:04;12.97;92.22
13713;DHT22;6928;50.546;7.120;2023-05-07T03:47:31;12.97;92.18
13713;DHT22;6928;50.546;7.120;2023-05-07T03:49:58;12.99;92.11
13713;DHT22;6928;50.546;7.120;2023-05-07T03:52:24;12.94;92.30
13713;DHT22;6928;50.546;7.120;2023-05-07T03:54:52;12.94;92.48
13713;DHT22;6928;50.546;7.120;2023-05-07T03:57:20;12.86;92.61
13713;DHT22;6928;50.546;7.120;2023-05-07T03:59:47;12.88;93.09
13713;DHT22;6928;50.546;7.120;2023-05-07T04:02:14;12.81;93.40
13713;DHT22;6928;50.546;7.120;2023-05-07T04:04:40;12.88;92.88
13713;DHT22;6928;50.546;7.120;2023-05-07T04:07:07;12.93;92.82
13713;DHT22;6928;50.546;7.120;2023-05-07T04:09:34;12.92;92.71
13713;DHT22;6928;50.546;7.120;2023-05-07T04:12:00;12.93;92.57
13713;DHT22;6928;50.546;7.120;2023-05-07T04:14:29;12.93;92.77
13713;DHT22;6928;50.546;7.120;2023-05-07T04:16:57;12.92;92.90
13713;DHT22;6928;50.546;7.120;2023-05-07T04:19:24;12.94;92.90
13713;DHT22;6928;50.546;7.120;2023-05-07T04:21:51;13.02;92.81
13713;DHT22;6928;50.546;7.120;2023-05-07T04:24:18;12.97;92.66
13713;DHT22;6928;50.546;7.120;2023-05-07T04:26:44;12.93;92.90
13713;DHT22;6928;50.546;7.120;2023-05-07T04:29:11;12.76;94.04
13713;DHT22;6928;50.546;7.120;2023-05-07T04:31:39;12.79;93.91
13713;DHT22;6928;50.546;7.120;2023-05-07T04:34:06;12.79;93.96
13713;DHT22;6928;50.546;7.120;2023-05-07T04:36:32;12.87;93.98
13713;DHT22;6928;50.546;7.120;2023-05-07T04:38:59;12.86;93.58
13713;DHT22;6928;50.546;7.120;2023-05-07T04:41:26;12.87;93.30
13713;DHT22;6928;50.546;7.120;2023-05-07T04:43:53;13.03;93.19
13713;DHT22;6928;50.546;7.120;2023-05-07T04:46:19;13.06;93.24
13713;DHT22;6928;50.546;7.120;2023-05-07T04:48:47;13.06;93.15
13713;DHT22;6928;50.546;7.120;2023-05-07T04:51:14;13.11;93.06
13713;DHT22;6928;50.546;7.120;2023-05-07T04:53:41;13.08;93.51
13713;DHT22;6928;50.546;7.120;2023-05-07T04:56:08;12.79;94.24
13713;DHT22;6928;50.546;7.120;2023-05-07T04:58:35;12.81;94.85
13713;DHT22;6928;50.546;7.120;2023-05-07T05:01:02;12.97;94.53
13713;DHT22;6928;50.546;7.120;2023-05-07T05:03:29;13.02;93.99
13713;DHT22;6928;50.546;7.120;2023-05-07T05:05:57;13.07;93.79
13713;DHT22;6928;50.546;7.120;2023-05-07T05:08:25;13.04;94.01
13713;DHT22;6928;50.546;7.120;2023-05-07T05:10:52;13.14;93.85
13713;DHT22;6928;50.546;7.120;2023-05-07T05:13:18;13.17;93.55
13713;DHT22;6928;50.546;7.120;2023-05-07T05:15:45;13.20;93.64
13713;DHT22;6928;50.546;7.120;2023-05-07T05:18:12;13.20;93.62
13713;DHT22;6928;50.546;7.120;2023-05-07T05:20:39;13.06;94.67
13713;DHT22;6928;50.546;7.120;2023-05-07T05:23:08;13.08;94.43
13713;DHT22;6928;50.546;7.120;2023-05-07T05:25:34;13.25;94.24
13713;DHT22;6928;50.546;7.120;2023-05-07T05:28:01;13.04;94.55
13713;DHT22;6928;50.546;7.120;2023-05-07T05:30:28;13.23;94.37
13713;DHT22;6928;50.546;7.120;2023-05-07T05:32:54;13.21;94.50
13713;DHT22;6928;50.546;7.120;2023-05-07T05:35:21;13.28;95.21
13713;DHT22;6928;50.546;7.120;2023-05-07T05:37:48;13.28;94.43
13713;DHT22;6928;50.546;7.120;2023-05-07T05:40:16;13.34;93.98
13713;DHT22;6928;50.546;7.120;2023-05-07T05:42:43;13.32;94.09
13713;DHT22;6928;50.546;7.120;2023-05-07T05:45:10;13.18;94.39
13713;DHT22;6928;50.546;7.120;2023-05-07T05:47:37;13.18;94.58
13713;DHT22;6928;50.546;7.120;2023-05-07T05:50:06;13.08;94.17
13713;DHT22;6928;50.546;7.120;2023-05-07T05:52:33;13.18;94.32
13713;DHT22;6928;50.546;7.120;2023-05-07T05:55:00;13.42;94.02
13713;DHT22;6928;50.546;7.120;2023-05-07T05:57:28;13.55;93.70
13713;DHT22;6928;50.546;7.120;2023-05-07T05:59:55;13.31;93.85
13713;DHT22;6928;50.546;7.120;2023-05-07T06:02:21;13.54;93.65
13713;DHT22;6928;50.546;7.120;2023-05-07T06:04:48;13.35;93.27
13713;DHT22;6928;50.546;7.120;2023-05-07T06:07:15;13.39;93.68
13713;DHT22;6928;50.546;7.120;2023-05-07T06:09:41;13.56;93.26
13713;DHT22;6928;50.546;7.120;2023-05-07T06:12:08;13.66;93.56
13713;DHT22;6928;50.546;7.120;2023-05-07T06:14:36;13.54;93.47
13713;DHT22;6928;50.546;7.120;2023-05-07T06:17:03;13.45;93.23
13713;DHT22;6928;50.546;7.120;2023-05-07T06:19:30;13.52;93.24
13713;DHT22;6928;50.546;7.120;2023-05-07T06:21:57;13.66;93.43
13713;DHT22;6928;50.546;7.120;2023-05-07T06:24:24;13.59;93.14
13713;DHT22;6928;50.546;7.120;2023-05-07T06:26:51;13.72;93.21
13713;DHT22;6928;50.546;7.120;2023-05-07T06:29:18;13.86;93.32
13713;DHT22;6928;50.546;7.120;2023-05-07T06:31:46;13.89;93.18
13713;DHT22;6928;50.546;7.120;2023-05-07T06:34:12;13.87;93.00
13713;DHT22;6928;50.546;7.120;2023-05-07T06:36:40;14.00;93.22
13713;DHT22;6928;50.546;7.120;2023-05-07T06:39:07;14.00;93.04
13713;DHT22;6928;50.546;7.120;2023-05-07T06:41:34;14.04;93.01
13713;DHT22;6928;50.546;7.120;2023-05-07T06:44:01;14.13;93.08
13713;DHT22;6928;50.546;7.120;2023-05-07T06:46:28;14.06;92.74
13713;DHT22;6928;50.546;7.120;2023-05-07T06:48:56;14.13;92.78
13713;DHT22;6928;50.546;7.120;2023-05-07T06:51:23;14.20;92.83
13713;DHT22;6928;50.546;7.120;2023-05-07T06:53:50;14.17;92.57
13713;DHT22;6928;50.546;7.120;2023-05-07T06:56:17;14.20;92.49
13713;DHT22;6928;50.546;7.120;2023-05-07T06:58:44;14.25;92.35
13713;DHT22;6928;50.546;7.120;2023-05-07T07:01:10;14.28;92.12
13713;DHT22;6928;50.546;7.120;2023-05-07T07:03:37;14.35;92.32
13713;DHT22;6928;50.546;7.120;2023-05-07T07:06:05;14.42;92.27
13713;DHT22;6928;50.546;7.120;2023-05-07T07:08:32;14.35;91.90
13713;DHT22;6928;50.546;7.120;2023-05-07T07:10:59;14.44;91.71
13713;DHT22;6928;50.546;7.120;2023-05-07T07:13:26;14.47;91.51
13713;DHT22;6928;50.546;7.120;2023-05-07T07:15:53;14.53;91.41
13713;DHT22;6928;50.546;7.120;2023-05-07T07:18:20;14.60;91.06
13713;DHT22;6928;50.546;7.120;2023-05-07T07:20:46;14.65;91.25
13713;DHT22;6928;50.546;7.120;2023-05-07T07:23:15;14.82;90.84
13713;DHT22;6928;50.546;7.120;2023-05-07T07:25:42;14.78;90.59
13713;DHT22;6928;50.546;7.120;2023-05-07T07:28:08;14.91;90.61
13713;DHT22;6928;50.546;7.120;2023-05-07T07:30:36;15.03;90.73
13713;DHT22;6928;50.546;7.120;2023-05-07T07:33:03;15.07;90.23
13713;DHT22;6928;50.546;7.120;2023-05-07T07:35:30;15.19;90.32
13713;DHT22;6928;50.546;7.120;2023-05-07T07:37:57;15.14;90.12
13713;DHT22;6928;50.546;7.120;2023-05-07T07:40:25;15.26;90.13
13713;DHT22;6928;50.546;7.120;2023-05-07T07:42:52;15.40;90.32
13713;DHT22;6928;50.546;7.120;2023-05-07T07:45:20;15.55;89.63
13713;DHT22;6928;50.546;7.120;2023-05-07T07:47:46;15.54;89.23
13713;DHT22;6928;50.546;7.120;2023-05-07T07:50:13;15.64;88.77
13713;DHT22;6928;50.546;7.120;2023-05-07T07:52:40;15.92;88.73
13713;DHT22;6928;50.546;7.120;2023-05-07T07:55:08;15.89;88.70
13713;DHT22;6928;50.546;7.120;2023-05-07T07:57:36;16.08;88.63
13713;DHT22;6928;50.546;7.120;2023-05-07T08:00:05;16.22;87.28
13713;DHT22;6928;50.546;7.120;2023-05-07T08:02:32;16.40;85.42
13713;DHT22;6928;50.546;7.120;2023-05-07T08:04:59;16.68;86.10
13713;DHT22;6928;50.546;7.120;2023-05-07T08:07:26;16.74;84.98
13713;DHT22;6928;50.546;7.120;2023-05-07T08:09:52;16.80;85.12
13713;DHT22;6928;50.546;7.120;2023-05-07T08:12:20;16.84;84.26
13713;DHT22;6928;50.546;7.120;2023-05-07T08:14:48;16.92;84.32
13713;DHT22;6928;50.546;7.120;2023-05-07T08:17:15;16.88;83.67
13713;DHT22;6928;50.546;7.120;2023-05-07T08:19:41;16.91;83.65
13713;DHT22;6928;50.546;7.120;2023-05-07T08:22:08;16.94;83.02
13713;DHT22;6928;50.546;7.120;2023-05-07T08:24:36;17.05;83.37
13713;DHT22;6928;50.546;7.120;2023-05-07T08:27:03;17.08;82.07
13713;DHT22;6928;50.546;7.120;2023-05-07T08:29:29;17.09;83.08
13713;DHT22;6928;50.546;7.120;2023-05-07T08:31:57;17.08;82.79
13713;DHT22;6928;50.546;7.120;2023-05-07T08:34:24;17.19;83.59
13713;DHT22;6928;50.546;7.120;2023-05-07T08:36:51;17.21;83.42
13713;DHT22;6928;50.546;7.120;2023-05-07T08:39:18;17.29;83.42
13713;DHT22;6928;50.546;7.120;2023-05-07T08:41:45;17.28;82.74
13713;DHT22;6928;50.546;7.120;2023-05-07T08:44:13;17.23;82.17
13713;DHT22;6928;50.546;7.120;2023-05-07T08:46:41;17.26;82.14
13713;DHT22;6928;50.546;7.120;2023-05-07T08:49:10;17.40;81.95
13713;DHT22;6928;50.546;7.120;2023-05-07T08:51:38;17.52;81.38
13713;DHT22;6928;50.546;7.120;2023-05-07T08:54:05;17.53;81.09
13713;DHT22;6928;50.546;7.120;2023-05-07T08:56:33;17.66;80.72
13713;DHT22;6928;50.546;7.120;2023-05-07T08:58:59;17.69;80.58
13713;DHT22;6928;50.546;7.120;2023-05-07T09:01:26;17.74;80.25
13713;DHT22;6928;50.546;7.120;2023-05-07T09:03:53;17.94;79.39
13713;DHT22;6928;50.546;7.120;2023-05-07T09:06:22;18.29;78.71
13713;DHT22;6928;50.546;7.120;2023-05-07T09:08:50;18.14;79.06
13713;DHT22;6928;50.546;7.120;2023-05-07T09:11:20;18.22;79.21
13713;DHT22;6928;50.546;7.120;2023-05-07T09:13:48;18.38;78.98
13713;DHT22;6928;50.546;7.120;2023-05-07T09:16:15;18.96;76.33
13713;DHT22;6928;50.546;7.120;2023-05-07T09:18:42;19.10;75.80
13713;DHT22;6928;50.546;7.120;2023-05-07T09:21:10;18.90;77.36
13713;DHT22;6928;50.546;7.120;2023-05-07T09:23:39;19.10;75.15
13713;DHT22;6928;50.546;7.120;2023-05-07T09:26:06;19.10;76.23
13713;DHT22;6928;50.546;7.120;2023-05-07T09:28:39;18.97;76.61
13713;DHT22;6928;50.546;7.120;2023-05-07T09:31:07;19.48;74.85
13713;DHT22;6928;50.546;7.120;2023-05-07T09:33:34;19.90;73.67
13713;DHT22;6928;50.546;7.120;2023-05-07T09:36:03;19.79;72.47
13713;DHT22;6928;50.546;7.120;2023-05-07T09:38:31;20.17;73.30
13713;DHT22;6928;50.546;7.120;2023-05-07T09:41:07;20.44;70.92
13713;DHT22;6928;50.546;7.120;2023-05-07T09:43:35;20.16;72.78
13713;DHT22;6928;50.546;7.120;2023-05-07T09:46:09;20.27;70.55
13713;DHT22;6928;50.546;7.120;2023-05-07T09:48:39;20.58;69.97
13713;DHT22;6928;50.546;7.120;2023-05-07T09:51:18;20.72;70.36
13713;DHT22;6928;50.546;7.120;2023-05-07T09:53:48;20.74;69.03
13713;DHT22;6928;50.546;7.120;2023-05-07T09:56:18;20.72;69.62
13713;DHT22;6928;50.546;7.120;2023-05-07T09:58:47;20.98;68.75
13713;DHT22;6928;50.546;7.120;2023-05-07T10:01:16;20.98;70.24
13713;DHT22;6928;50.546;7.120;2023-05-07T10:03:45;20.92;67.62
13713;DHT22;6928;50.546;7.120;2023-05-07T10:06:13;21.29;65.68
13713;DHT22;6928;50.546;7.120;2023-05-07T10:08:42;21.34;67.24
13713;DHT22;6928;50.546;7.120;2023-05-07T10:11:10;21.61;65.61
13713;DHT22;6928;50.546;7.120;2023-05-07T10:13:38;21.58;64.61
13713;DHT22;6928;50.546;7.120;2023-05-07T10:16:05;21.68;66.25
13713;DHT22;6928;50.546;7.120;2023-05-07T10:18:33;22.11;64.58
13713;DHT22;6928;50.546;7.120;2023-05-07T10:21:11;21.67;65.15
13713;DHT22;6928;50.546;7.120;2023-05-07T10:23:41;21.64;66.01
13713;DHT22;6928;50.546;7.120;2023-05-07T10:26:10;22.26;61.34
13713;DHT22;6928;50.546;7.120;2023-05-07T10:28:43;22.01;61.50
13713;DHT22;6928;50.546;7.120;2023-05-07T10:31:27;22.33;61.49
13713;DHT22;6928;50.546;7.120;2023-05-07T10:34:00;22.56;57.71
13713;DHT22;6928;50.546;7.120;2023-05-07T10:36:28;22.53;60.79
13713;DHT22;6928;50.546;7.120;2023-05-07T10:38:57;22.59;59.03
13713;DHT22;6928;50.546;7.120;2023-05-07T10:41:24;22.55;60.55
13713;DHT22;6928;50.546;7.120;2023-05-07T10:43:52;23.01;57.39
13713;DHT22;6928;50.546;7.120;2023-05-07T10:46:20;22.74;57.99
13713;DHT22;6928;50.546;7.120;2023-05-07T10:49:06;22.92;57.01
13713;DHT22;6928;50.546;7.120;2023-05-07T10:51:34;22.92;55.47
13713;DHT22;6928;50.546;7.120;2023-05-07T10:54:20;23.10;57.16
13713;DHT22;6928;50.546;7.120;2023-05-07T10:56:47;23.32;56.38
13713;DHT22;6928;50.546;7.120;2023-05-07T10:59:35;23.22;56.58
13713;DHT22;6928;50.546;7.120;2023-05-07T11:02:07;22.94;56.75
13713;DHT22;6928;50.546;7.120;2023-05-07T11:04:35;23.59;53.69
13713;DHT22;6928;50.546;7.120;2023-05-07T11:07:29;23.17;53.55
13713;DHT22;6928;50.546;7.120;2023-05-07T11:09:58;23.35;56.19
13713;DHT22;6928;50.546;7.120;2023-05-07T11:12:55;23.48;54.29
13713;DHT22;6928;50.546;7.120;2023-05-07T11:15:38;23.70;54.26
13713;DHT22;6928;50.546;7.120;2023-05-07T11:18:07;23.58;53.52
13713;DHT22;6928;50.546;7.120;2023-05-07T11:20:54;23.48;50.45
13713;DHT22;6928;50.546;7.120;2023-05-07T11:23:56;23.83;51.76
13713;DHT22;6928;50.546;7.120;2023-05-07T11:26:25;23.25;51.65
13713;DHT22;6928;50.546;7.120;2023-05-07T11:28:53;23.45;52.97
13713;DHT22;6928;50.546;7.120;2023-05-07T11:31:26;23.82;53.08
13713;DHT22;6928;50.546;7.120;2023-05-07T11:33:54;23.69;52.81
13713;DHT22;6928;50.546;7.120;2023-05-07T11:36:24;23.41;53.01
13713;DHT22;6928;50.546;7.120;2023-05-07T11:38:54;23.02;52.36
13713;DHT22;6928;50.546;7.120;2023-05-07T11:41:22;22.83;52.21
13713;DHT22;6928;50.546;7.120;2023-05-07T11:43:57;22.90;51.46
13713;DHT22;6928;50.546;7.120;2023-05-07T11:46:27;22.98;52.16
13713;DHT22;6928;50.546;7.120;2023-05-07T11:48:55;23.10;52.20
13713;DHT22;6928;50.546;7.120;2023-05-07T11:51:24;23.25;51.60
13713;DHT22;6928;50.546;7.120;2023-05-07T11:53:52;22.71;49.47
13713;DHT22;6928;50.546;7.120;2023-05-07T11:56:19;22.70;51.03
13713;DHT22;6928;50.546;7.120;2023-05-07T11:58:47;22.69;51.00
13713;DHT22;6928;50.546;7.120;2023-05-07T12:01:15;22.63;52.49
13713;DHT22;6928;50.546;7.120;2023-05-07T12:03:46;23.62;51.45
13713;DHT22;6928;50.546;7.120;2023-05-07T12:06:16;23.04;50.95
13713;DHT22;6928;50.546;7.120;2023-05-07T12:08:44;23.21;51.19
13713;DHT22;6928;50.546;7.120;2023-05-07T12:11:15;23.48;51.08
13713;DHT22;6928;50.546;7.120;2023-05-07T12:13:43;23.04;50.99
13713;DHT22;6928;50.546;7.120;2023-05-07T12:16:11;23.55;51.09
13713;DHT22;6928;50.546;7.120;2023-05-07T12:18:39;23.24;53.23
13713;DHT22;6928;50.546;7.120;2023-05-07T12:21:07;23.37;50.90
13713;DHT22;6928;50.546;7.120;2023-05-07T12:23:36;23.42;50.92
13713;DHT22;6928;50.546;7.120;2023-05-07T12:26:04;23.31;50.42
13713;DHT22;6928;50.546;7.120;2023-05-07T12:28:35;23.42;51.06
13713;DHT22;6928;50.546;7.120;2023-05-07T12:31:04;23.31;51.88
13713;DHT22;6928;50.546;7.120;2023-05-07T12:33:31;23.07;51.53
13713;DHT22;6928;50.546;7.120;2023-05-07T12:36:00;23.20;52.60
13713;DHT22;6928;50.546;7.120;2023-05-07T12:38:35;23.67;49.20
13713;DHT22;6928;50.546;7.120;2023-05-07T12:41:02;23.69;49.61
13713;DHT22;6928;50.546;7.120;2023-05-07T12:43:29;23.90;49.49
13713;DHT22;6928;50.546;7.120;2023-05-07T12:45:59;23.75;50.89
13713;DHT22;6928;50.546;7.120;2023-05-07T12:48:26;23.48;51.39
13713;DHT22;6928;50.546;7.120;2023-05-07T12:50:54;23.59;50.11
13713;DHT22;6928;50.546;7.120;2023-05-07T12:53:24;23.46;51.23
13713;DHT22;6928;50.546;7.120;2023-05-07T12:55:54;23.62;50.76
13713;DHT22;6928;50.546;7.120;2023-05-07T12:58:27;23.48;50.68
13713;DHT22;6928;50.546;7.120;2023-05-07T13:00:56;23.21;51.48
13713;DHT22;6928;50.546;7.120;2023-05-07T13:03:27;23.04;53.28
13713;DHT22;6928;50.546;7.120;2023-05-07T13:05:56;23.08;52.97
13713;DHT22;6928;50.546;7.120;2023-05-07T13:08:28;23.01;54.28
13713;DHT22;6928;50.546;7.120;2023-05-07T13:10:57;23.02;53.60
13713;DHT22;6928;50.546;7.120;2023-05-07T13:13:25;22.81;54.06
13713;DHT22;6928;50.546;7.120;2023-05-07T13:15:52;23.20;53.11
13713;DHT22;6928;50.546;7.120;2023-05-07T13:18:18;23.15;53.54
13713;DHT22;6928;50.546;7.120;2023-05-07T13:20:45;23.14;53.15
13713;DHT22;6928;50.546;7.120;2023-05-07T13:23:12;22.97;53.16
13713;DHT22;6928;50.546;7.120;2023-05-07T13:25:38;23.22;52.23
13713;DHT22;6928;50.546;7.120;2023-05-07T13:28:06;23.28;51.57
13713;DHT22;6928;50.546;7.120;2023-05-07T13:30:33;23.04;52.27
13713;DHT22;6928;50.546;7.120;2023-05-07T13:33:00;23.17;52.90
13713;DHT22;6928;50.546;7.120;2023-05-07T13:35:27;23.07;52.87
13713;DHT22;6928;50.546;7.120;2023-05-07T13:37:54;23.21;52.89
13713;DHT22;6928;50.546;7.120;2023-05-07T13:40:21;23.11;54.14
13713;DHT22;6928;50.546;7.120;2023-05-07T13:42:48;23.10;54.48
13713;DHT22;6928;50.546;7.120;2023-05-07T13:45:17;22.88;55.27
13713;DHT22;6928;50.546;7.120;2023-05-07T13:47:44;22.73;55.90
13713;DHT22;6928;50.546;7.120;2023-05-07T13:50:12;22.70;55.89
13713;DHT22;6928;50.546;7.120;2023-05-07T13:52:41;22.08;62.54
13713;DHT22;6928;50.546;7.120;2023-05-07T13:55:11;21.00;69.31
13713;DHT22;6928;50.546;7.120;2023-05-07T13:57:39;20.49;71.90
13713;DHT22;6928;50.546;7.120;2023-05-07T14:00:07;20.44;71.60
13713;DHT22;6928;50.546;7.120;2023-05-07T14:02:35;19.75;73.41
13713;DHT22;6928;50.546;7.120;2023-05-07T14:05:03;19.51;73.83
13713;DHT22;6928;50.546;7.120;2023-05-07T14:07:30;19.75;73.72
13713;DHT22;6928;50.546;7.120;2023-05-07T14:09:57;19.44;74.63
13713;DHT22;6928;50.546;7.120;2023-05-07T14:12:24;19.21;75.01
13713;DHT22;6928;50.546;7.120;2023-05-07T14:14:51;19.28;74.75
13713;DHT22;6928;50.546;7.120;2023-05-07T14:17:18;19.17;74.54
13713;DHT22;6928;50.546;7.120;2023-05-07T14:19:46;18.98;74.89
13713;DHT22;6928;50.546;7.120;2023-05-07T14:22:13;18.76;74.96
13713;DHT22;6928;50.546;7.120;2023-05-07T14:24:41;18.76;74.94
13713;DHT22;6928;50.546;7.120;2023-05-07T14:27:07;18.65;75.41
13713;DHT22;6928;50.546;7.120;2023-05-07T14:29:34;18.65;75.85
13713;DHT22;6928;50.546;7.120;2023-05-07T14:32:03;18.58;76.19
13713;DHT22;6928;50.546;7.120;2023-05-07T14:34:31;18.47;76.39
13713;DHT22;6928;50.546;7.120;2023-05-07T14:37:00;18.38;77.22
13713;DHT22;6928;50.546;7.120;2023-05-07T14:39:27;18.38;77.75
13713;DHT22;6928;50.546;7.120;2023-05-07T14:41:54;18.35;78.27
13713;DHT22;6928;50.546;7.120;2023-05-07T14:44:21;18.35;78.25
13713;DHT22;6928;50.546;7.120;2023-05-07T14:46:48;18.05;79.37
13713;DHT22;6928;50.546;7.120;2023-05-07T14:49:15;18.35;78.28
13713;DHT22;6928;50.546;7.120;2023-05-07T14:51:43;18.45;78.13
13713;DHT22;6928;50.546;7.120;2023-05-07T14:54:12;18.44;78.01
13713;DHT22;6928;50.546;7.120;2023-05-07T14:56:40;18.38;79.17
13713;DHT22;6928;50.546;7.120;2023-05-07T14:59:08;18.42;79.46
13713;DHT22;6928;50.546;7.120;2023-05-07T15:01:36;18.41;79.24
13713;DHT22;6928;50.546;7.120;2023-05-07T15:04:03;18.21;79.62
13713;DHT22;6928;50.546;7.120;2023-05-07T15:06:30;18.33;79.20
13713;DHT22;6928;50.546;7.120;2023-05-07T15:08:57;18.14;78.98
13713;DHT22;6928;50.546;7.120;2023-05-07T15:11:25;18.31;80.65
13713;DHT22;6928;50.546;7.120;2023-05-07T15:13:52;18.32;80.02
13713;DHT22;6928;50.546;7.120;2023-05-07T15:16:19;18.18;81.64
13713;DHT22;6928;50.546;7.120;2023-05-07T15:18:47;18.18;82.65
13713;DHT22;6928;50.546;7.120;2023-05-07T15:21:14;17.96;82.71
13713;DHT22;6928;50.546;7.120;2023-05-07T15:23:41;17.74;83.53
13713;DHT22;6928;50.546;7.120;2023-05-07T15:26:09;17.63;84.42
13713;DHT22;6928;50.546;7.120;2023-05-07T15:28:38;17.49;84.79
13713;DHT22;6928;50.546;7.120;2023-05-07T15:31:06;17.63;85.18
13713;DHT22;6928;50.546;7.120;2023-05-07T15:33:33;17.87;84.95
13713;DHT22;6928;50.546;7.120;2023-05-07T15:36:00;17.45;84.36
13713;DHT22;6928;50.546;7.120;2023-05-07T15:38:30;17.39;86.64
13713;DHT22;6928;50.546;7.120;2023-05-07T15:40:57;17.32;87.13
13713;DHT22;6928;50.546;7.120;2023-05-07T15:43:23;17.28;87.29
13713;DHT22;6928;50.546;7.120;2023-05-07T15:45:54;17.15;87.44
13713;DHT22;6928;50.546;7.120;2023-05-07T15:48:25;17.01;87.55
13713;DHT22;6928;50.546;7.120;2023-05-07T15:50:53;16.95;87.33